Terminal Aerodrome Forecast
Issued by NWS

Home | Current Version | Previous Version | Text Only | Print | Product List | Glossary On
Versions: 1 2 3 4 5 6 7 8 9 10 11 12 13 14 15 16 17 18 19 20
000
FTUS44 KLIX 072323
TAFMCB
TAF
KMCB 072323Z 0800/0824 VRB03KT P6SM BKN012
      TEMPO 0805/0809 4SM BR
     FM080900 03006KT P6SM OVC008
     FM081100 02008KT P6SM OVC010 PROB30 0812/0814 4SM -SHRA BR
      OVC003
     FM081400 02008KT P6SM OVC020 PROB30 0814/0818 4SM -SHRA BR
      OVC007
     FM081800 01009KT P6SM BKN040=

USA.gov is the U.S. government's official web portal to all federal, state and local government web resources and services.